PWSweather.com
Personal Weather Stations
Station Observations

PoschiavoCH

Lat: 46.31962499999999, Lon: 10.066551000000004

Elevation: 3517

Station Type: WH 1080

http://www.meteoposchiavo.com

High Low Average
Temperature 72.0°F22.2°C 37.0°F2.8°C 50.0°F10.0°C
Dew Point 35.7°F2.1°C 14.5°F-9.7°C 26.6°F-3.0°C
Winds 4.6 mph 7.4 kmh Calm Calm 1.0 mph SSE1.6 kmh SSE
Wind Gusts 6.9 mph11.1 kmh -- 2.0 mph3.2 kmh
Humidity 79% 24% 42%
Pressure 26.61 in901.1 mb 26.38 in893.3 mb -
Precipitation 0.00 in0.0 mm - -
Hour Temp Dew Point Humidity Winds Wind Gusts Pressure Precip Precip Rate Daily Precip Total
12:00 AM 39.0°F3.9°C 23.3°F-4.8°C 53% 2.3 mph S3.7 kmh S 2.3 mph3.7 kmh 26.61 in901.1 mb - 0.00 in0.0 mm 0.00 in0.0 mm
12:10 AM 39.0°F3.9°C 25.5°F-3.6°C 58% Calm Calm 2.3 mph3.7 kmh 26.61 in901.1 mb - 0.00 in0.0 mm 0.00 in0.0 mm
12:15 AM 39.0°F3.9°C 25.5°F-3.6°C 58% Calm Calm -- 26.61 in901.1 mb - 0.00 in0.0 mm 0.00 in0.0 mm
12:20 AM 38.0°F3.3°C 22.8°F-5.1°C 54% Calm Calm 1.2 mph1.9 kmh 26.60 in900.8 mb - 0.00 in0.0 mm 0.00 in0.0 mm
12:25 AM 38.0°F3.3°C 21.9°F-5.6°C 52% Calm Calm -- 26.60 in900.8 mb - 0.00 in0.0 mm 0.00 in0.0 mm
12:30 AM 38.0°F3.3°C 21.5°F-5.8°C 51% 2.3 mph N3.7 kmh N 2.3 mph3.7 kmh 26.61 in901.1 mb - 0.00 in0.0 mm 0.00 in0.0 mm
12:35 AM 38.0°F3.3°C 24.1°F-4.4°C 57% Calm Calm -- 26.60 in900.8 mb - 0.00 in0.0 mm 0.00 in0.0 mm
12:40 AM 37.0°F2.8°C 20.5°F-6.4°C 51% Calm Calm 1.2 mph1.9 kmh 26.60 in900.8 mb - 0.00 in0.0 mm 0.00 in0.0 mm
12:45 AM 37.0°F2.8°C 20.5°F-6.4°C 51% Calm Calm 1.2 mph1.9 kmh 26.60 in900.8 mb - 0.00 in0.0 mm 0.00 in0.0 mm
12:50 AM 37.0°F2.8°C 21.0°F-6.1°C 52% Calm Calm -- 26.60 in900.8 mb - 0.00 in0.0 mm 0.00 in0.0 mm
12:55 AM 38.0°F3.3°C 21.9°F-5.6°C 52% Calm Calm -- 26.59 in900.4 mb - 0.00 in0.0 mm 0.00 in0.0 mm
01:00 AM 39.0°F3.9°C 18.9°F-7.3°C 44% Calm Calm -- 26.59 in900.4 mb - 0.00 in0.0 mm 0.00 in0.0 mm
01:10 AM 40.0°F4.4°C 17.6°F-8.0°C 40% 1.2 mph SE1.9 kmh SE 2.3 mph3.7 kmh 26.59 in900.4 mb - 0.00 in0.0 mm 0.00 in0.0 mm
01:15 AM 40.0°F4.4°C 17.0°F-8.3°C 39% 2.3 mph SSW3.7 kmh SSW 5.8 mph9.3 kmh 26.59 in900.4 mb - 0.00 in0.0 mm 0.00 in0.0 mm
01:20 AM 40.0°F4.4°C 17.0°F-8.3°C 39% 3.5 mph SSW5.6 kmh SSW 5.8 mph9.3 kmh 26.59 in900.4 mb - 0.00 in0.0 mm 0.00 in0.0 mm
01:25 AM 40.0°F4.4°C 17.6°F-8.0°C 40% 3.5 mph SSW5.6 kmh SSW 3.5 mph5.6 kmh 26.58 in900.1 mb - 0.00 in0.0 mm 0.00 in0.0 mm
01:30 AM 40.0°F4.4°C 17.0°F-8.3°C 39% 3.5 mph SSE5.6 kmh SSE 5.8 mph9.3 kmh 26.58 in900.1 mb - 0.00 in0.0 mm 0.00 in0.0 mm
01:35 AM 41.0°F5.0°C 17.9°F-7.8°C 39% 2.3 mph SSE3.7 kmh SSE 2.3 mph3.7 kmh 26.58 in900.1 mb - 0.00 in0.0 mm 0.00 in0.0 mm
01:40 AM 41.0°F5.0°C 17.3°F-8.2°C 38% 1.2 mph SE1.9 kmh SE 2.3 mph3.7 kmh 26.57 in899.8 mb - 0.00 in0.0 mm 0.00 in0.0 mm
01:45 AM 41.0°F5.0°C 17.9°F-7.8°C 39% 1.2 mph SSE1.9 kmh SSE 2.3 mph3.7 kmh 26.58 in900.1 mb - 0.00 in0.0 mm 0.00 in0.0 mm
01:50 AM 41.0°F5.0°C 17.9°F-7.8°C 39% 2.3 mph SSE3.7 kmh SSE 5.8 mph9.3 kmh 26.57 in899.8 mb - 0.00 in0.0 mm 0.00 in0.0 mm
01:55 AM 41.0°F5.0°C 17.3°F-8.2°C 38% 3.5 mph SSE5.6 kmh SSE 5.8 mph9.3 kmh 26.57 in899.8 mb - 0.00 in0.0 mm 0.00 in0.0 mm
02:00 AM 41.0°F5.0°C 17.3°F-8.2°C 38% 3.5 mph E5.6 kmh E 3.5 mph5.6 kmh 26.57 in899.8 mb - 0.00 in0.0 mm 0.00 in0.0 mm
02:10 AM 40.0°F4.4°C 15.2°F-9.3°C 36% 3.5 mph SSE5.6 kmh SSE 3.5 mph5.6 kmh 26.56 in899.4 mb - 0.00 in0.0 mm 0.00 in0.0 mm
02:15 AM 41.0°F5.0°C 16.7°F-8.5°C 37% 2.3 mph E3.7 kmh E 3.5 mph5.6 kmh 26.56 in899.4 mb - 0.00 in0.0 mm 0.00 in0.0 mm
02:20 AM 41.0°F5.0°C 15.4°F-9.2°C 35% 1.2 mph ESE1.9 kmh ESE 3.5 mph5.6 kmh 26.56 in899.4 mb - 0.00 in0.0 mm 0.00 in0.0 mm
02:25 AM 41.0°F5.0°C 15.4°F-9.2°C 35% 1.2 mph ESE1.9 kmh ESE 2.3 mph3.7 kmh 26.56 in899.4 mb - 0.00 in0.0 mm 0.00 in0.0 mm
02:30 AM 41.0°F5.0°C 16.7°F-8.5°C 37% 1.2 mph ESE1.9 kmh ESE 1.2 mph1.9 kmh 26.56 in899.4 mb - 0.00 in0.0 mm 0.00 in0.0 mm
02:35 AM 40.0°F4.4°C 15.8°F-9.0°C 37% Calm Calm 1.2 mph1.9 kmh 26.56 in899.4 mb - 0.00 in0.0 mm 0.00 in0.0 mm
02:40 AM 40.0°F4.4°C 15.2°F-9.3°C 36% 2.3 mph WSW3.7 kmh WSW 3.5 mph5.6 kmh 26.55 in899.1 mb - 0.00 in0.0 mm 0.00 in0.0 mm
02:45 AM 40.0°F4.4°C 16.4°F-8.7°C 38% Calm Calm 1.2 mph1.9 kmh 26.55 in899.1 mb - 0.00 in0.0 mm 0.00 in0.0 mm
02:50 AM 40.0°F4.4°C 14.5°F-9.7°C 35% 2.3 mph ENE3.7 kmh ENE 3.5 mph5.6 kmh 26.54 in898.7 mb - 0.00 in0.0 mm 0.00 in0.0 mm
02:55 AM 40.7°F4.8°C 15.8°F-9.0°C 36% 1.2 mph ENE1.9 kmh ENE 3.5 mph5.6 kmh 26.55 in899.1 mb - 0.00 in0.0 mm 0.00 in0.0 mm
03:00 AM 41.0°F5.0°C 16.0°F-8.9°C 36% 1.2 mph ENE1.9 kmh ENE 1.2 mph1.9 kmh 26.55 in899.1 mb - 0.00 in0.0 mm 0.00 in0.0 mm
03:10 AM 41.0°F5.0°C 16.0°F-8.9°C 36% 1.2 mph E1.9 kmh E 1.2 mph1.9 kmh 26.54 in898.7 mb - 0.00 in0.0 mm 0.00 in0.0 mm
03:15 AM 40.0°F4.4°C 15.2°F-9.3°C 36% 1.2 mph S1.9 kmh S 2.3 mph3.7 kmh 26.55 in899.1 mb - 0.00 in0.0 mm 0.00 in0.0 mm
03:20 AM 40.0°F4.4°C 15.2°F-9.3°C 36% Calm Calm -- 26.54 in898.7 mb - 0.00 in0.0 mm 0.00 in0.0 mm
03:25 AM 40.0°F4.4°C 15.2°F-9.3°C 36% Calm Calm 1.2 mph1.9 kmh 26.54 in898.7 mb - 0.00 in0.0 mm 0.00 in0.0 mm
03:30 AM 40.5°F4.7°C 15.6°F-9.1°C 36% 1.2 mph SE1.9 kmh SE 3.5 mph5.6 kmh 26.54 in898.7 mb - 0.00 in0.0 mm 0.00 in0.0 mm
03:35 AM 41.0°F5.0°C 16.0°F-8.9°C 36% 2.3 mph S3.7 kmh S 3.5 mph5.6 kmh 26.54 in898.7 mb - 0.00 in0.0 mm 0.00 in0.0 mm
03:40 AM 41.0°F5.0°C 15.4°F-9.2°C 35% Calm Calm 1.2 mph1.9 kmh 26.53 in898.4 mb - 0.00 in0.0 mm 0.00 in0.0 mm
03:45 AM 41.0°F5.0°C 15.4°F-9.2°C 35% 2.3 mph ENE3.7 kmh ENE 3.5 mph5.6 kmh 26.53 in898.4 mb - 0.00 in0.0 mm 0.00 in0.0 mm
03:50 AM 41.0°F5.0°C 16.0°F-8.9°C 36% Calm Calm 1.2 mph1.9 kmh 26.54 in898.7 mb - 0.00 in0.0 mm 0.00 in0.0 mm
03:55 AM 40.0°F4.4°C 15.2°F-9.3°C 36% 1.2 mph ENE1.9 kmh ENE 2.3 mph3.7 kmh 26.53 in898.4 mb - 0.00 in0.0 mm 0.00 in0.0 mm
04:00 AM 41.0°F5.0°C 15.4°F-9.2°C 35% Calm Calm 2.3 mph3.7 kmh 26.53 in898.4 mb - 0.00 in0.0 mm 0.00 in0.0 mm
04:10 AM 41.0°F5.0°C 15.4°F-9.2°C 35% 3.5 mph SE5.6 kmh SE 6.9 mph11.1 kmh 26.52 in898.1 mb - 0.00 in0.0 mm 0.00 in0.0 mm
04:15 AM 40.0°F4.4°C 15.8°F-9.0°C 37% Calm Calm 1.2 mph1.9 kmh 26.52 in898.1 mb - 0.00 in0.0 mm 0.00 in0.0 mm
04:20 AM 40.0°F4.4°C 15.2°F-9.3°C 36% Calm Calm 1.2 mph1.9 kmh 26.52 in898.1 mb - 0.00 in0.0 mm 0.00 in0.0 mm
04:25 AM 41.0°F5.0°C 16.7°F-8.5°C 37% 1.2 mph E1.9 kmh E 2.3 mph3.7 kmh 26.52 in898.1 mb - 0.00 in0.0 mm 0.00 in0.0 mm
04:30 AM 40.0°F4.4°C 16.4°F-8.7°C 38% Calm Calm 1.2 mph1.9 kmh 26.52 in898.1 mb - 0.00 in0.0 mm 0.00 in0.0 mm
04:35 AM 40.0°F4.4°C 15.8°F-9.0°C 37% Calm Calm 2.3 mph3.7 kmh 26.52 in898.1 mb - 0.00 in0.0 mm 0.00 in0.0 mm
04:40 AM 40.0°F4.4°C 15.2°F-9.3°C 36% 1.2 mph S1.9 kmh S 2.3 mph3.7 kmh 26.51 in897.7 mb - 0.00 in0.0 mm 0.00 in0.0 mm
04:45 AM 40.0°F4.4°C 15.2°F-9.3°C 36% 3.5 mph ENE5.6 kmh ENE 6.9 mph11.1 kmh 26.53 in898.4 mb - 0.00 in0.0 mm 0.00 in0.0 mm
04:50 AM 40.0°F4.4°C 16.4°F-8.7°C 38% Calm Calm -- 26.52 in898.1 mb - 0.00 in0.0 mm 0.00 in0.0 mm
04:55 AM 39.0°F3.9°C 16.1°F-8.8°C 39% Calm Calm -- 26.52 in898.1 mb - 0.00 in0.0 mm 0.00 in0.0 mm
05:00 AM 39.7°F4.3°C 16.1°F-8.8°C 38% 1.2 mph ENE1.9 kmh ENE 1.2 mph1.9 kmh 26.52 in898.1 mb - 0.00 in0.0 mm 0.00 in0.0 mm
05:10 AM 40.0°F4.4°C 15.8°F-9.0°C 37% Calm Calm 1.2 mph1.9 kmh 26.52 in898.1 mb - 0.00 in0.0 mm 0.00 in0.0 mm
05:15 AM 40.0°F4.4°C 17.0°F-8.3°C 39% Calm Calm 1.2 mph1.9 kmh 26.52 in898.1 mb - 0.00 in0.0 mm 0.00 in0.0 mm
05:20 AM 40.0°F4.4°C 17.6°F-8.0°C 40% Calm Calm 1.2 mph1.9 kmh 26.52 in898.1 mb - 0.00 in0.0 mm 0.00 in0.0 mm
05:25 AM 41.0°F5.0°C 17.3°F-8.2°C 38% 1.2 mph E1.9 kmh E 2.3 mph3.7 kmh 26.52 in898.1 mb - 0.00 in0.0 mm 0.00 in0.0 mm
05:30 AM 41.0°F5.0°C 17.3°F-8.2°C 38% 1.2 mph E1.9 kmh E 2.3 mph3.7 kmh 26.52 in898.1 mb - 0.00 in0.0 mm 0.00 in0.0 mm
05:35 AM 41.0°F5.0°C 17.9°F-7.8°C 39% Calm Calm -- 26.52 in898.1 mb - 0.00 in0.0 mm 0.00 in0.0 mm
05:40 AM 41.0°F5.0°C 17.3°F-8.2°C 38% 3.5 mph SSW5.6 kmh SSW 3.5 mph5.6 kmh 26.52 in898.1 mb - 0.00 in0.0 mm 0.00 in0.0 mm
05:45 AM 41.0°F5.0°C 16.7°F-8.5°C 37% 1.2 mph E1.9 kmh E 2.3 mph3.7 kmh 26.52 in898.1 mb - 0.00 in0.0 mm 0.00 in0.0 mm
05:50 AM 41.0°F5.0°C 17.9°F-7.8°C 39% Calm Calm -- 26.52 in898.1 mb - 0.00 in0.0 mm 0.00 in0.0 mm
05:55 AM 41.0°F5.0°C 17.3°F-8.2°C 38% Calm Calm -- 26.51 in897.7 mb - 0.00 in0.0 mm 0.00 in0.0 mm
06:00 AM 41.0°F5.0°C 17.3°F-8.2°C 38% Calm Calm -- 26.51 in897.7 mb - 0.00 in0.0 mm 0.00 in0.0 mm
06:10 AM 41.0°F5.0°C 20.7°F-6.3°C 44% Calm Calm -- 26.51 in897.7 mb - 0.00 in0.0 mm 0.00 in0.0 mm
06:15 AM 41.0°F5.0°C 18.5°F-7.5°C 40% Calm Calm 1.2 mph1.9 kmh 26.52 in898.1 mb - 0.00 in0.0 mm 0.00 in0.0 mm
06:20 AM 41.0°F5.0°C 16.7°F-8.5°C 37% Calm Calm 1.2 mph1.9 kmh 26.51 in897.7 mb - 0.00 in0.0 mm 0.00 in0.0 mm
06:25 AM 41.0°F5.0°C 16.7°F-8.5°C 37% 1.2 mph NE1.9 kmh NE 3.5 mph5.6 kmh 26.51 in897.7 mb - 0.00 in0.0 mm 0.00 in0.0 mm
06:30 AM 41.0°F5.0°C 16.7°F-8.5°C 37% 3.5 mph NE5.6 kmh NE 3.5 mph5.6 kmh 26.51 in897.7 mb - 0.00 in0.0 mm 0.00 in0.0 mm
06:35 AM 41.0°F5.0°C 18.5°F-7.5°C 40% Calm Calm -- 26.50 in897.4 mb - 0.00 in0.0 mm 0.00 in0.0 mm
06:40 AM 41.0°F5.0°C 17.3°F-8.2°C 38% 2.3 mph ENE3.7 kmh ENE 3.5 mph5.6 kmh 26.51 in897.7 mb - 0.00 in0.0 mm 0.00 in0.0 mm
06:45 AM 41.0°F5.0°C 18.5°F-7.5°C 40% 1.2 mph SW1.9 kmh SW 1.2 mph1.9 kmh 26.51 in897.7 mb - 0.00 in0.0 mm 0.00 in0.0 mm
06:50 AM 41.0°F5.0°C 17.9°F-7.8°C 39% 2.3 mph S3.7 kmh S 3.5 mph5.6 kmh 26.51 in897.7 mb - 0.00 in0.0 mm 0.00 in0.0 mm
06:55 AM 41.0°F5.0°C 17.9°F-7.8°C 39% 2.3 mph S3.7 kmh S 3.5 mph5.6 kmh 26.51 in897.7 mb - 0.00 in0.0 mm 0.00 in0.0 mm
07:00 AM 41.0°F5.0°C 17.9°F-7.8°C 39% 1.2 mph NW1.9 kmh NW 2.3 mph3.7 kmh 26.51 in897.7 mb - 0.00 in0.0 mm 0.00 in0.0 mm
07:10 AM 41.0°F5.0°C 17.9°F-7.8°C 39% 1.2 mph ENE1.9 kmh ENE 1.2 mph1.9 kmh 26.50 in897.4 mb - 0.00 in0.0 mm 0.00 in0.0 mm
07:15 AM 41.0°F5.0°C 17.9°F-7.8°C 39% 1.2 mph S1.9 kmh S 2.3 mph3.7 kmh 26.50 in897.4 mb - 0.00 in0.0 mm 0.00 in0.0 mm
07:20 AM 41.0°F5.0°C 17.3°F-8.2°C 38% Calm Calm 2.3 mph3.7 kmh 26.50 in897.4 mb - 0.00 in0.0 mm 0.00 in0.0 mm
07:25 AM 41.0°F5.0°C 17.3°F-8.2°C 38% Calm Calm 1.2 mph1.9 kmh 26.50 in897.4 mb - 0.00 in0.0 mm 0.00 in0.0 mm
07:30 AM 42.0°F5.6°C 18.8°F-7.3°C 39% 1.2 mph NE1.9 kmh NE 2.3 mph3.7 kmh 26.50 in897.4 mb - 0.00 in0.0 mm 0.00 in0.0 mm
07:35 AM 42.0°F5.6°C 18.2°F-7.7°C 38% Calm Calm -- 26.51 in897.7 mb - 0.00 in0.0 mm 0.00 in0.0 mm
07:40 AM 43.0°F6.1°C 19.1°F-7.2°C 38% 1.2 mph ESE1.9 kmh ESE 2.3 mph3.7 kmh 26.49 in897.1 mb - 0.00 in0.0 mm 0.00 in0.0 mm
07:45 AM 43.4°F6.3°C 19.5°F-6.9°C 38% Calm Calm 2.3 mph3.7 kmh 26.49 in897.1 mb - 0.00 in0.0 mm 0.00 in0.0 mm
07:50 AM 44.0°F6.7°C 20.0°F-6.7°C 38% Calm Calm -- 26.50 in897.4 mb - 0.00 in0.0 mm 0.00 in0.0 mm
07:55 AM 44.0°F6.7°C 19.4°F-7.0°C 37% Calm Calm 1.2 mph1.9 kmh 26.48 in896.7 mb - 0.00 in0.0 mm 0.00 in0.0 mm
08:00 AM 45.0°F7.2°C 20.3°F-6.5°C 37% 1.2 mph SSE1.9 kmh SSE 1.2 mph1.9 kmh 26.48 in896.7 mb - 0.00 in0.0 mm 0.00 in0.0 mm
08:10 AM 45.0°F7.2°C 20.3°F-6.5°C 37% 2.3 mph SW3.7 kmh SW 2.3 mph3.7 kmh 26.49 in897.1 mb - 0.00 in0.0 mm 0.00 in0.0 mm
08:15 AM 46.0°F7.8°C 19.8°F-6.8°C 35% 3.5 mph SSW5.6 kmh SSW 5.8 mph9.3 kmh 26.48 in896.7 mb - 0.00 in0.0 mm 0.00 in0.0 mm
08:20 AM 46.0°F7.8°C 20.5°F-6.4°C 36% Calm Calm 1.2 mph1.9 kmh 26.48 in896.7 mb - 0.00 in0.0 mm 0.00 in0.0 mm
08:25 AM 46.0°F7.8°C 19.8°F-6.8°C 35% 1.2 mph N1.9 kmh N 1.2 mph1.9 kmh 26.48 in896.7 mb - 0.00 in0.0 mm 0.00 in0.0 mm
08:30 AM 46.0°F7.8°C 20.5°F-6.4°C 36% Calm Calm 1.2 mph1.9 kmh 26.48 in896.7 mb - 0.00 in0.0 mm 0.00 in0.0 mm
08:35 AM 46.0°F7.8°C 21.8°F-5.7°C 38% Calm Calm -- 26.47 in896.4 mb - 0.00 in0.0 mm 0.00 in0.0 mm
08:40 AM 46.0°F7.8°C 23.0°F-5.0°C 40% 2.3 mph WNW3.7 kmh WNW 2.3 mph3.7 kmh 26.47 in896.4 mb - 0.00 in0.0 mm 0.00 in0.0 mm
08:45 AM 48.0°F8.9°C 23.6°F-4.7°C 38% 3.5 mph WNW5.6 kmh WNW 3.5 mph5.6 kmh 26.46 in896.0 mb - 0.00 in0.0 mm 0.00 in0.0 mm
08:50 AM 48.0°F8.9°C 21.6°F-5.8°C 35% 3.5 mph NNE5.6 kmh NNE 5.8 mph9.3 kmh 26.48 in896.7 mb - 0.00 in0.0 mm 0.00 in0.0 mm
08:55 AM 48.0°F8.9°C 21.6°F-5.8°C 35% 3.5 mph NNE5.6 kmh NNE 5.8 mph9.3 kmh 26.48 in896.7 mb - 0.00 in0.0 mm 0.00 in0.0 mm
09:00 AM 48.0°F8.9°C 23.6°F-4.7°C 38% Calm Calm 1.2 mph1.9 kmh 26.47 in896.4 mb - 0.00 in0.0 mm 0.00 in0.0 mm
09:10 AM 49.0°F9.4°C 23.8°F-4.6°C 37% 1.2 mph S1.9 kmh S 1.2 mph1.9 kmh 26.46 in896.0 mb - 0.00 in0.0 mm 0.00 in0.0 mm
09:15 AM 49.0°F9.4°C 23.2°F-4.9°C 36% 2.3 mph WSW3.7 kmh WSW 5.8 mph9.3 kmh 26.45 in895.7 mb - 0.00 in0.0 mm 0.00 in0.0 mm
09:20 AM 49.0°F9.4°C 21.8°F-5.7°C 34% 3.5 mph W5.6 kmh W 5.8 mph9.3 kmh 26.45 in895.7 mb - 0.00 in0.0 mm 0.00 in0.0 mm
09:25 AM 50.0°F10.0°C 24.1°F-4.4°C 36% 2.3 mph SSE3.7 kmh SSE 3.5 mph5.6 kmh 26.46 in896.0 mb - 0.00 in0.0 mm 0.00 in0.0 mm
09:30 AM 51.0°F10.6°C 25.6°F-3.6°C 37% 2.3 mph S3.7 kmh S 3.5 mph5.6 kmh 26.45 in895.7 mb - 0.00 in0.0 mm 0.00 in0.0 mm
09:35 AM 54.0°F12.2°C 24.8°F-4.0°C 32% Calm Calm 1.2 mph1.9 kmh 26.45 in895.7 mb - 0.00 in0.0 mm 0.00 in0.0 mm
09:40 AM 54.6°F12.6°C 26.0°F-3.3°C 33% 1.2 mph E1.9 kmh E 2.3 mph3.7 kmh 26.45 in895.7 mb - 0.00 in0.0 mm 0.00 in0.0 mm
09:45 AM 55.0°F12.8°C 26.4°F-3.1°C 33% 2.3 mph ENE3.7 kmh ENE 2.3 mph3.7 kmh 26.45 in895.7 mb - 0.00 in0.0 mm 0.00 in0.0 mm
09:50 AM 55.0°F12.8°C 24.9°F-3.9°C 31% 2.3 mph E3.7 kmh E 2.3 mph3.7 kmh 26.45 in895.7 mb - 0.00 in0.0 mm 0.00 in0.0 mm
09:55 AM 57.0°F13.9°C 25.0°F-3.9°C 29% 3.5 mph WSW5.6 kmh WSW 6.9 mph11.1 kmh 26.45 in895.7 mb - 0.00 in0.0 mm 0.00 in0.0 mm
10:00 AM 56.0°F13.3°C 25.8°F-3.4°C 31% 2.3 mph SSE3.7 kmh SSE 2.3 mph3.7 kmh 26.45 in895.7 mb - 0.00 in0.0 mm 0.00 in0.0 mm
10:10 AM 58.0°F14.4°C 25.9°F-3.4°C 29% 3.5 mph SE5.6 kmh SE 5.8 mph9.3 kmh 26.44 in895.4 mb - 0.00 in0.0 mm 0.00 in0.0 mm
10:15 AM 59.0°F15.0°C 25.9°F-3.4°C 28% 3.5 mph SSE5.6 kmh SSE 3.5 mph5.6 kmh 26.44 in895.4 mb - 0.00 in0.0 mm 0.00 in0.0 mm
10:20 AM 58.0°F14.4°C 26.7°F-2.9°C 30% 3.5 mph SW5.6 kmh SW 6.9 mph11.1 kmh 26.44 in895.4 mb - 0.00 in0.0 mm 0.00 in0.0 mm
10:25 AM 58.0°F14.4°C 26.7°F-2.9°C 30% 3.5 mph WSW5.6 kmh WSW 5.8 mph9.3 kmh 26.44 in895.4 mb - 0.00 in0.0 mm 0.00 in0.0 mm
10:30 AM 58.0°F14.4°C 25.9°F-3.4°C 29% 3.5 mph SE5.6 kmh SE 3.5 mph5.6 kmh 26.44 in895.4 mb - 0.00 in0.0 mm 0.00 in0.0 mm
10:35 AM 57.7°F14.3°C 26.4°F-3.1°C 30% 2.3 mph SE3.7 kmh SE 3.5 mph5.6 kmh 26.43 in895.0 mb - 0.00 in0.0 mm 0.00 in0.0 mm
10:40 AM 57.0°F13.9°C 26.6°F-3.0°C 31% 2.3 mph SE3.7 kmh SE 2.3 mph3.7 kmh 26.42 in894.7 mb - 0.00 in0.0 mm 0.00 in0.0 mm
10:45 AM 58.0°F14.4°C 28.3°F-2.1°C 32% 2.3 mph S3.7 kmh S 2.3 mph3.7 kmh 26.43 in895.0 mb - 0.00 in0.0 mm 0.00 in0.0 mm
10:50 AM 58.0°F14.4°C 26.7°F-2.9°C 30% 2.3 mph S3.7 kmh S 3.5 mph5.6 kmh 26.43 in895.0 mb - 0.00 in0.0 mm 0.00 in0.0 mm
10:55 AM 58.0°F14.4°C 27.5°F-2.5°C 31% 3.5 mph SE5.6 kmh SE 5.8 mph9.3 kmh 26.42 in894.7 mb - 0.00 in0.0 mm 0.00 in0.0 mm
11:00 AM 58.7°F14.8°C 27.3°F-2.6°C 30% 3.5 mph S5.6 kmh S 5.8 mph9.3 kmh 26.43 in895.0 mb - 0.00 in0.0 mm 0.00 in0.0 mm
11:10 AM 60.0°F15.6°C 28.4°F-2.0°C 30% 1.2 mph ESE1.9 kmh ESE 2.3 mph3.7 kmh 26.43 in895.0 mb - 0.00 in0.0 mm 0.00 in0.0 mm
11:15 AM 60.0°F15.6°C 26.8°F-2.9°C 28% 1.2 mph SE1.9 kmh SE 1.2 mph1.9 kmh 26.42 in894.7 mb - 0.00 in0.0 mm 0.00 in0.0 mm
11:20 AM 61.0°F16.1°C 29.3°F-1.5°C 30% 2.3 mph SW3.7 kmh SW 3.5 mph5.6 kmh 26.43 in895.0 mb - 0.00 in0.0 mm 0.00 in0.0 mm
11:25 AM 62.0°F16.7°C 27.6°F-2.4°C 27% 2.3 mph SE3.7 kmh SE 2.3 mph3.7 kmh 26.42 in894.7 mb - 0.00 in0.0 mm 0.00 in0.0 mm
11:30 AM 62.0°F16.7°C 27.6°F-2.4°C 27% 2.3 mph SE3.7 kmh SE 5.8 mph9.3 kmh 26.42 in894.7 mb - 0.00 in0.0 mm 0.00 in0.0 mm
11:35 AM 62.0°F16.7°C 27.6°F-2.4°C 27% 3.5 mph S5.6 kmh S 5.8 mph9.3 kmh 26.41 in894.3 mb - 0.00 in0.0 mm 0.00 in0.0 mm
11:40 AM 63.0°F17.2°C 29.4°F-1.4°C 28% 3.5 mph SSW5.6 kmh SSW 5.8 mph9.3 kmh 26.42 in894.7 mb - 0.00 in0.0 mm 0.00 in0.0 mm
11:45 AM 64.0°F17.8°C 27.4°F-2.6°C 25% 2.3 mph SW3.7 kmh SW 2.3 mph3.7 kmh 26.42 in894.7 mb - 0.00 in0.0 mm 0.00 in0.0 mm
11:50 AM 64.0°F17.8°C 29.3°F-1.5°C 27% 2.3 mph SW3.7 kmh SW 3.5 mph5.6 kmh 26.41 in894.3 mb - 0.00 in0.0 mm 0.00 in0.0 mm
11:55 AM 64.0°F17.8°C 29.3°F-1.5°C 27% 2.3 mph SW3.7 kmh SW 3.5 mph5.6 kmh 26.41 in894.3 mb - 0.00 in0.0 mm 0.00 in0.0 mm
12:00 PM 65.0°F18.3°C 29.2°F-1.6°C 26% Calm Calm 1.2 mph1.9 kmh 26.41 in894.3 mb - 0.00 in0.0 mm 0.00 in0.0 mm
12:10 PM 65.0°F18.3°C 28.3°F-2.1°C 25% 2.3 mph S3.7 kmh S 3.5 mph5.6 kmh 26.41 in894.3 mb - 0.00 in0.0 mm 0.00 in0.0 mm
12:15 PM 65.6°F18.7°C 29.7°F-1.3°C 26% 2.3 mph S3.7 kmh S 3.5 mph5.6 kmh 26.41 in894.3 mb - 0.00 in0.0 mm 0.00 in0.0 mm
12:20 PM 66.0°F18.9°C 30.1°F-1.1°C 26% 2.3 mph S3.7 kmh S 3.5 mph5.6 kmh 26.41 in894.3 mb - 0.00 in0.0 mm 0.00 in0.0 mm
12:25 PM 66.0°F18.9°C 29.1°F-1.6°C 25% 4.6 mph SW7.4 kmh SW 5.8 mph9.3 kmh 26.41 in894.3 mb - 0.00 in0.0 mm 0.00 in0.0 mm
12:30 PM 66.0°F18.9°C 31.0°F-0.6°C 27% 3.5 mph SSE5.6 kmh SSE 6.9 mph11.1 kmh 26.41 in894.3 mb - 0.00 in0.0 mm 0.00 in0.0 mm
12:35 PM 67.0°F19.4°C 31.9°F-0.1°C 27% 2.3 mph SW3.7 kmh SW 2.3 mph3.7 kmh 26.40 in894.0 mb - 0.00 in0.0 mm 0.00 in0.0 mm
12:40 PM 67.0°F19.4°C 31.9°F-0.1°C 27% 2.3 mph SW3.7 kmh SW 2.3 mph3.7 kmh 26.40 in894.0 mb - 0.00 in0.0 mm 0.00 in0.0 mm
12:45 PM 67.0°F19.4°C 31.0°F-0.6°C 26% 1.2 mph S1.9 kmh S 1.2 mph1.9 kmh 26.39 in893.7 mb - 0.00 in0.0 mm 0.00 in0.0 mm
12:50 PM 67.0°F19.4°C 31.0°F-0.6°C 26% 1.2 mph SSW1.9 kmh SSW 1.2 mph1.9 kmh 26.40 in894.0 mb - 0.00 in0.0 mm 0.00 in0.0 mm
12:55 PM 69.0°F20.6°C 32.7°F0.4°C 26% Calm Calm 1.2 mph1.9 kmh 26.40 in894.0 mb - 0.00 in0.0 mm 0.00 in0.0 mm
01:00 PM 69.0°F20.6°C 32.7°F0.4°C 26% 2.3 mph W3.7 kmh W 2.3 mph3.7 kmh 26.40 in894.0 mb - 0.00 in0.0 mm 0.00 in0.0 mm
01:10 PM 68.0°F20.0°C 30.8°F-0.7°C 25% 1.2 mph SW1.9 kmh SW 2.3 mph3.7 kmh 26.39 in893.7 mb - 0.00 in0.0 mm 0.00 in0.0 mm
01:15 PM 66.0°F18.9°C 31.0°F-0.6°C 27% 1.2 mph SW1.9 kmh SW 1.2 mph1.9 kmh 26.40 in894.0 mb - 0.00 in0.0 mm 0.00 in0.0 mm
01:20 PM 67.0°F19.4°C 31.9°F-0.1°C 27% Calm Calm 1.2 mph1.9 kmh 26.40 in894.0 mb - 0.00 in0.0 mm 0.00 in0.0 mm
01:25 PM 68.0°F20.0°C 30.8°F-0.7°C 25% 2.3 mph S3.7 kmh S 2.3 mph3.7 kmh 26.40 in894.0 mb - 0.00 in0.0 mm 0.00 in0.0 mm
01:30 PM 68.0°F20.0°C 29.8°F-1.2°C 24% 3.5 mph SW5.6 kmh SW 3.5 mph5.6 kmh 26.40 in894.0 mb - 0.00 in0.0 mm 0.00 in0.0 mm
01:35 PM 68.0°F20.0°C 30.8°F-0.7°C 25% 2.3 mph SW3.7 kmh SW 3.5 mph5.6 kmh 26.40 in894.0 mb - 0.00 in0.0 mm 0.00 in0.0 mm
01:40 PM 68.0°F20.0°C 31.8°F-0.1°C 26% 2.3 mph SSW3.7 kmh SSW 3.5 mph5.6 kmh 26.39 in893.7 mb - 0.00 in0.0 mm 0.00 in0.0 mm
01:45 PM 69.0°F20.6°C 32.7°F0.4°C 26% 1.2 mph SSE1.9 kmh SSE 1.2 mph1.9 kmh 26.40 in894.0 mb - 0.00 in0.0 mm 0.00 in0.0 mm
01:50 PM 69.0°F20.6°C 32.7°F0.4°C 26% 2.3 mph SSE3.7 kmh SSE 2.3 mph3.7 kmh 26.40 in894.0 mb - 0.00 in0.0 mm 0.00 in0.0 mm
01:55 PM 69.0°F20.6°C 32.7°F0.4°C 26% Calm Calm 1.2 mph1.9 kmh 26.40 in894.0 mb - 0.00 in0.0 mm 0.00 in0.0 mm
02:00 PM 69.0°F20.6°C 31.7°F-0.2°C 25% 3.5 mph S5.6 kmh S 5.8 mph9.3 kmh 26.40 in894.0 mb - 0.00 in0.0 mm 0.00 in0.0 mm
02:10 PM 68.0°F20.0°C 30.8°F-0.7°C 25% 2.3 mph S3.7 kmh S 2.3 mph3.7 kmh 26.39 in893.7 mb - 0.00 in0.0 mm 0.00 in0.0 mm
02:15 PM 68.0°F20.0°C 30.8°F-0.7°C 25% 2.3 mph S3.7 kmh S 3.5 mph5.6 kmh 26.39 in893.7 mb - 0.00 in0.0 mm 0.00 in0.0 mm
02:20 PM 69.0°F20.6°C 32.7°F0.4°C 26% Calm Calm -- 26.40 in894.0 mb - 0.00 in0.0 mm 0.00 in0.0 mm
02:25 PM 70.0°F21.1°C 32.5°F0.3°C 25% 1.2 mph S1.9 kmh S 1.2 mph1.9 kmh 26.39 in893.7 mb - 0.00 in0.0 mm 0.00 in0.0 mm
02:30 PM 70.0°F21.1°C 32.5°F0.3°C 25% 1.2 mph S1.9 kmh S 1.2 mph1.9 kmh 26.39 in893.7 mb - 0.00 in0.0 mm 0.00 in0.0 mm
02:35 PM 69.0°F20.6°C 32.7°F0.4°C 26% Calm Calm 1.2 mph1.9 kmh 26.40 in894.0 mb - 0.00 in0.0 mm 0.00 in0.0 mm
02:40 PM 69.0°F20.6°C 31.7°F-0.2°C 25% 1.2 mph SW1.9 kmh SW 1.2 mph1.9 kmh 26.39 in893.7 mb - 0.00 in0.0 mm 0.00 in0.0 mm
02:45 PM 71.0°F21.7°C 33.4°F0.8°C 25% Calm Calm 1.2 mph1.9 kmh 26.39 in893.7 mb - 0.00 in0.0 mm 0.00 in0.0 mm
02:50 PM 71.0°F21.7°C 33.4°F0.8°C 25% 1.2 mph SW1.9 kmh SW 2.3 mph3.7 kmh 26.39 in893.7 mb - 0.00 in0.0 mm 0.00 in0.0 mm
02:55 PM 71.0°F21.7°C 33.4°F0.8°C 25% 1.2 mph SSW1.9 kmh SSW 2.3 mph3.7 kmh 26.39 in893.7 mb - 0.00 in0.0 mm 0.00 in0.0 mm
03:00 PM 72.0°F22.2°C 34.2°F1.2°C 25% 2.3 mph SE3.7 kmh SE 2.3 mph3.7 kmh 26.39 in893.7 mb - 0.00 in0.0 mm 0.00 in0.0 mm
03:10 PM 66.0°F18.9°C 31.9°F-0.1°C 28% 3.5 mph SE5.6 kmh SE 3.5 mph5.6 kmh 26.39 in893.7 mb - 0.00 in0.0 mm 0.00 in0.0 mm
03:15 PM 66.0°F18.9°C 31.0°F-0.6°C 27% 1.2 mph WSW1.9 kmh WSW 2.3 mph3.7 kmh 26.38 in893.3 mb - 0.00 in0.0 mm 0.00 in0.0 mm
03:20 PM 66.0°F18.9°C 31.0°F-0.6°C 27% 1.2 mph WSW1.9 kmh WSW 2.3 mph3.7 kmh 26.38 in893.3 mb - 0.00 in0.0 mm 0.00 in0.0 mm
03:25 PM 68.0°F20.0°C 31.8°F-0.1°C 26% 1.2 mph ESE1.9 kmh ESE 1.2 mph1.9 kmh 26.39 in893.7 mb - 0.00 in0.0 mm 0.00 in0.0 mm
03:30 PM 63.0°F17.2°C 31.9°F-0.1°C 31% 1.2 mph NNE1.9 kmh NNE 2.3 mph3.7 kmh 26.39 in893.7 mb - 0.00 in0.0 mm 0.00 in0.0 mm
03:35 PM 61.0°F16.1°C 33.1°F0.6°C 35% 1.2 mph W1.9 kmh W 1.2 mph1.9 kmh 26.38 in893.3 mb - 0.00 in0.0 mm 0.00 in0.0 mm
03:40 PM 60.3°F15.7°C 32.5°F0.3°C 35% Calm Calm 1.2 mph1.9 kmh 26.38 in893.3 mb - 0.00 in0.0 mm 0.00 in0.0 mm
03:45 PM 60.0°F15.6°C 32.2°F0.1°C 35% Calm Calm -- 26.38 in893.3 mb - 0.00 in0.0 mm 0.00 in0.0 mm
03:50 PM 59.0°F15.0°C 30.6°F-0.8°C 34% 2.3 mph WSW3.7 kmh WSW 3.5 mph5.6 kmh 26.38 in893.3 mb - 0.00 in0.0 mm 0.00 in0.0 mm
03:55 PM 59.0°F15.0°C 29.9°F-1.2°C 33% 1.2 mph SW1.9 kmh SW 2.3 mph3.7 kmh 26.38 in893.3 mb - 0.00 in0.0 mm 0.00 in0.0 mm
04:00 PM 60.0°F15.6°C 29.2°F-1.6°C 31% Calm Calm -- 26.38 in893.3 mb - 0.00 in0.0 mm 0.00 in0.0 mm
04:10 PM 59.0°F15.0°C 34.1°F1.2°C 39% 1.2 mph WSW1.9 kmh WSW 1.2 mph1.9 kmh 26.39 in893.7 mb - 0.00 in0.0 mm 0.00 in0.0 mm
04:15 PM 57.0°F13.9°C 31.6°F-0.2°C 38% 2.3 mph WNW3.7 kmh WNW 2.3 mph3.7 kmh 26.38 in893.3 mb - 0.00 in0.0 mm 0.00 in0.0 mm
04:20 PM 57.0°F13.9°C 31.0°F-0.6°C 37% 3.5 mph NW5.6 kmh NW 3.5 mph5.6 kmh 26.38 in893.3 mb - 0.00 in0.0 mm 0.00 in0.0 mm
04:25 PM 57.0°F13.9°C 34.7°F1.5°C 43% Calm Calm 3.5 mph5.6 kmh 26.39 in893.7 mb - 0.00 in0.0 mm 0.00 in0.0 mm
04:30 PM 57.0°F13.9°C 34.7°F1.5°C 43% Calm Calm 1.2 mph1.9 kmh 26.39 in893.7 mb - 0.00 in0.0 mm 0.00 in0.0 mm
04:35 PM 58.0°F14.4°C 35.6°F2.0°C 43% 2.3 mph SW3.7 kmh SW 2.3 mph3.7 kmh 26.38 in893.3 mb - 0.00 in0.0 mm 0.00 in0.0 mm
04:40 PM 57.0°F13.9°C 33.5°F0.8°C 41% 2.3 mph NW3.7 kmh NW 3.5 mph5.6 kmh 26.39 in893.7 mb - 0.00 in0.0 mm 0.00 in0.0 mm
04:45 PM 57.0°F13.9°C 34.7°F1.5°C 43% 2.3 mph WSW3.7 kmh WSW 3.5 mph5.6 kmh 26.39 in893.7 mb - 0.00 in0.0 mm 0.00 in0.0 mm
04:50 PM 57.0°F13.9°C 32.3°F0.2°C 39% 2.3 mph W3.7 kmh W 3.5 mph5.6 kmh 26.39 in893.7 mb - 0.00 in0.0 mm 0.00 in0.0 mm
04:55 PM 57.0°F13.9°C 31.6°F-0.2°C 38% 2.3 mph W3.7 kmh W 2.3 mph3.7 kmh 26.39 in893.7 mb - 0.00 in0.0 mm 0.00 in0.0 mm
05:00 PM 57.0°F13.9°C 31.6°F-0.2°C 38% 2.3 mph WNW3.7 kmh WNW 3.5 mph5.6 kmh 26.39 in893.7 mb - 0.00 in0.0 mm 0.00 in0.0 mm
05:10 PM 55.0°F12.8°C 30.5°F-0.8°C 39% 2.3 mph NW3.7 kmh NW 3.5 mph5.6 kmh 26.40 in894.0 mb - 0.00 in0.0 mm 0.00 in0.0 mm
05:15 PM 55.0°F12.8°C 31.1°F-0.5°C 40% 2.3 mph WNW3.7 kmh WNW 3.5 mph5.6 kmh 26.40 in894.0 mb - 0.00 in0.0 mm 0.00 in0.0 mm
05:20 PM 55.0°F12.8°C 32.3°F0.2°C 42% 2.3 mph W3.7 kmh W 2.3 mph3.7 kmh 26.40 in894.0 mb - 0.00 in0.0 mm 0.00 in0.0 mm
05:25 PM 56.0°F13.3°C 31.4°F-0.3°C 39% Calm Calm -- 26.39 in893.7 mb - 0.00 in0.0 mm 0.00 in0.0 mm
05:30 PM 56.0°F13.3°C 33.2°F0.7°C 42% 2.3 mph W3.7 kmh W 3.5 mph5.6 kmh 26.40 in894.0 mb - 0.00 in0.0 mm 0.00 in0.0 mm
05:35 PM 56.0°F13.3°C 32.0°F0.0°C 40% 2.3 mph W3.7 kmh W 2.3 mph3.7 kmh 26.40 in894.0 mb - 0.00 in0.0 mm 0.00 in0.0 mm
05:40 PM 55.8°F13.2°C 31.8°F-0.1°C 40% 2.3 mph W3.7 kmh W 2.3 mph3.7 kmh 26.40 in894.0 mb - 0.00 in0.0 mm 0.00 in0.0 mm
05:45 PM 55.0°F12.8°C 32.3°F0.2°C 42% 2.3 mph WSW3.7 kmh WSW 2.3 mph3.7 kmh 26.40 in894.0 mb - 0.00 in0.0 mm 0.00 in0.0 mm
05:50 PM 56.0°F13.3°C 33.8°F1.0°C 43% 1.2 mph WSW1.9 kmh WSW 2.3 mph3.7 kmh 26.40 in894.0 mb - 0.00 in0.0 mm 0.00 in0.0 mm
05:55 PM 56.0°F13.3°C 33.8°F1.0°C 43% Calm Calm 1.2 mph1.9 kmh 26.41 in894.3 mb - 0.00 in0.0 mm 0.00 in0.0 mm
06:00 PM 56.0°F13.3°C 34.4°F1.3°C 44% 1.2 mph WSW1.9 kmh WSW 2.3 mph3.7 kmh 26.40 in894.0 mb - 0.00 in0.0 mm 0.00 in0.0 mm
06:10 PM 55.0°F12.8°C 31.7°F-0.2°C 41% 2.3 mph NW3.7 kmh NW 3.5 mph5.6 kmh 26.41 in894.3 mb - 0.00 in0.0 mm 0.00 in0.0 mm
06:15 PM 54.0°F12.2°C 32.6°F0.3°C 44% 2.3 mph W3.7 kmh W 3.5 mph5.6 kmh 26.41 in894.3 mb - 0.00 in0.0 mm 0.00 in0.0 mm
06:20 PM 53.0°F11.7°C 31.6°F-0.2°C 44% 2.3 mph WNW3.7 kmh WNW 2.3 mph3.7 kmh 26.41 in894.3 mb - 0.00 in0.0 mm 0.00 in0.0 mm
06:25 PM 53.0°F11.7°C 32.2°F0.1°C 45% 2.3 mph E3.7 kmh E 3.5 mph5.6 kmh 26.42 in894.7 mb - 0.00 in0.0 mm 0.00 in0.0 mm
06:30 PM 53.0°F11.7°C 32.2°F0.1°C 45% 3.5 mph E5.6 kmh E 3.5 mph5.6 kmh 26.42 in894.7 mb - 0.00 in0.0 mm 0.00 in0.0 mm
06:35 PM 53.0°F11.7°C 32.8°F0.4°C 46% 1.2 mph NW1.9 kmh NW 2.3 mph3.7 kmh 26.42 in894.7 mb - 0.00 in0.0 mm 0.00 in0.0 mm
06:40 PM 52.0°F11.1°C 33.4°F0.8°C 49% 1.2 mph WSW1.9 kmh WSW 2.3 mph3.7 kmh 26.43 in895.0 mb - 0.00 in0.0 mm 0.00 in0.0 mm
06:45 PM 52.0°F11.1°C 33.4°F0.8°C 49% Calm Calm 1.2 mph1.9 kmh 26.43 in895.0 mb - 0.00 in0.0 mm 0.00 in0.0 mm
06:50 PM 51.4°F10.8°C 33.4°F0.8°C 50% 1.2 mph WSW1.9 kmh WSW 3.5 mph5.6 kmh 26.43 in895.0 mb - 0.00 in0.0 mm 0.00 in0.0 mm
06:55 PM 51.0°F10.6°C 33.5°F0.8°C 51% 2.3 mph WSW3.7 kmh WSW 3.5 mph5.6 kmh 26.43 in895.0 mb - 0.00 in0.0 mm 0.00 in0.0 mm
07:00 PM 51.0°F10.6°C 33.5°F0.8°C 51% 1.2 mph S1.9 kmh S 1.2 mph1.9 kmh 26.44 in895.4 mb - 0.00 in0.0 mm 0.00 in0.0 mm
07:10 PM 50.0°F10.0°C 34.5°F1.4°C 55% Calm Calm 1.2 mph1.9 kmh 26.44 in895.4 mb - 0.00 in0.0 mm 0.00 in0.0 mm
07:15 PM 50.0°F10.0°C 34.5°F1.4°C 55% Calm Calm 2.3 mph3.7 kmh 26.44 in895.4 mb - 0.00 in0.0 mm 0.00 in0.0 mm
07:20 PM 50.0°F10.0°C 34.0°F1.1°C 54% 1.2 mph W1.9 kmh W 2.3 mph3.7 kmh 26.44 in895.4 mb - 0.00 in0.0 mm 0.00 in0.0 mm
07:25 PM 50.0°F10.0°C 34.0°F1.1°C 54% Calm Calm 1.2 mph1.9 kmh 26.45 in895.7 mb - 0.00 in0.0 mm 0.00 in0.0 mm
07:30 PM 50.0°F10.0°C 34.0°F1.1°C 54% Calm Calm -- 26.45 in895.7 mb - 0.00 in0.0 mm 0.00 in0.0 mm
07:35 PM 50.0°F10.0°C 34.5°F1.4°C 55% Calm Calm -- 26.45 in895.7 mb - 0.00 in0.0 mm 0.00 in0.0 mm
07:40 PM 50.0°F10.0°C 34.5°F1.4°C 55% Calm Calm -- 26.45 in895.7 mb - 0.00 in0.0 mm 0.00 in0.0 mm
07:45 PM 50.0°F10.0°C 34.5°F1.4°C 55% Calm Calm -- 26.46 in896.0 mb - 0.00 in0.0 mm 0.00 in0.0 mm
07:50 PM 49.0°F9.4°C 34.0°F1.1°C 56% Calm Calm -- 26.46 in896.0 mb - 0.00 in0.0 mm 0.00 in0.0 mm
07:55 PM 49.0°F9.4°C 34.4°F1.3°C 57% Calm Calm -- 26.47 in896.4 mb - 0.00 in0.0 mm 0.00 in0.0 mm
08:00 PM 49.0°F9.4°C 34.4°F1.3°C 57% Calm Calm -- 26.47 in896.4 mb - 0.00 in0.0 mm 0.00 in0.0 mm
08:10 PM 49.0°F9.4°C 35.7°F2.1°C 60% Calm Calm -- 26.48 in896.7 mb - 0.00 in0.0 mm 0.00 in0.0 mm
08:15 PM 48.0°F8.9°C 35.2°F1.8°C 61% Calm Calm -- 26.49 in897.1 mb - 0.00 in0.0 mm 0.00 in0.0 mm
08:20 PM 48.0°F8.9°C 34.8°F1.6°C 60% Calm Calm -- 26.49 in897.1 mb - 0.00 in0.0 mm 0.00 in0.0 mm
08:25 PM 48.0°F8.9°C 34.8°F1.6°C 60% Calm Calm -- 26.50 in897.4 mb - 0.00 in0.0 mm 0.00 in0.0 mm
08:30 PM 48.0°F8.9°C 34.8°F1.6°C 60% Calm Calm -- 26.50 in897.4 mb - 0.00 in0.0 mm 0.00 in0.0 mm
08:35 PM 47.0°F8.3°C 35.4°F1.9°C 64% Calm Calm -- 26.49 in897.1 mb - 0.00 in0.0 mm 0.00 in0.0 mm
08:40 PM 47.0°F8.3°C 35.0°F1.7°C 63% Calm Calm -- 26.51 in897.7 mb - 0.00 in0.0 mm 0.00 in0.0 mm
08:45 PM 46.0°F7.8°C 34.9°F1.6°C 65% Calm Calm -- 26.50 in897.4 mb - 0.00 in0.0 mm 0.00 in0.0 mm
08:50 PM 46.0°F7.8°C 34.9°F1.6°C 65% Calm Calm -- 26.51 in897.7 mb - 0.00 in0.0 mm 0.00 in0.0 mm
08:55 PM 46.0°F7.8°C 34.9°F1.6°C 65% Calm Calm -- 26.50 in897.4 mb - 0.00 in0.0 mm 0.00 in0.0 mm
09:00 PM 46.0°F7.8°C 35.3°F1.8°C 66% Calm Calm -- 26.50 in897.4 mb - 0.00 in0.0 mm 0.00 in0.0 mm
09:10 PM 45.0°F7.2°C 34.7°F1.5°C 67% Calm Calm -- 26.52 in898.1 mb - 0.00 in0.0 mm 0.00 in0.0 mm
09:15 PM 45.0°F7.2°C 34.7°F1.5°C 67% Calm Calm -- 26.52 in898.1 mb - 0.00 in0.0 mm 0.00 in0.0 mm
09:20 PM 45.0°F7.2°C 35.1°F1.7°C 68% Calm Calm -- 26.52 in898.1 mb - 0.00 in0.0 mm 0.00 in0.0 mm
09:25 PM 45.0°F7.2°C 35.4°F1.9°C 69% Calm Calm -- 26.53 in898.4 mb - 0.00 in0.0 mm 0.00 in0.0 mm
09:30 PM 45.0°F7.2°C 35.4°F1.9°C 69% Calm Calm -- 26.53 in898.4 mb - 0.00 in0.0 mm 0.00 in0.0 mm
09:35 PM 44.0°F6.7°C 34.5°F1.4°C 69% Calm Calm -- 26.53 in898.4 mb - 0.00 in0.0 mm 0.00 in0.0 mm
09:40 PM 45.0°F7.2°C 35.1°F1.7°C 68% Calm Calm 1.2 mph1.9 kmh 26.53 in898.4 mb - 0.00 in0.0 mm 0.00 in0.0 mm
09:45 PM 44.0°F6.7°C 35.2°F1.8°C 71% Calm Calm -- 26.53 in898.4 mb - 0.00 in0.0 mm 0.00 in0.0 mm
09:50 PM 44.0°F6.7°C 35.2°F1.8°C 71% Calm Calm -- 26.52 in898.1 mb - 0.00 in0.0 mm 0.00 in0.0 mm
09:55 PM 43.0°F6.1°C 34.9°F1.6°C 73% Calm Calm -- 26.54 in898.7 mb - 0.00 in0.0 mm 0.00 in0.0 mm
10:00 PM 43.0°F6.1°C 34.9°F1.6°C 73% Calm Calm -- 26.54 in898.7 mb - 0.00 in0.0 mm 0.00 in0.0 mm
10:10 PM 43.0°F6.1°C 34.9°F1.6°C 73% Calm Calm 1.2 mph1.9 kmh 26.54 in898.7 mb - 0.00 in0.0 mm 0.00 in0.0 mm
10:15 PM 43.0°F6.1°C 34.2°F1.2°C 71% Calm Calm -- 26.54 in898.7 mb - 0.00 in0.0 mm 0.00 in0.0 mm
10:20 PM 43.0°F6.1°C 35.3°F1.8°C 74% Calm Calm -- 26.54 in898.7 mb - 0.00 in0.0 mm 0.00 in0.0 mm
10:25 PM 42.0°F5.6°C 34.3°F1.3°C 74% Calm Calm -- 26.53 in898.4 mb - 0.00 in0.0 mm 0.00 in0.0 mm
10:30 PM 42.7°F5.9°C 34.7°F1.5°C 73% Calm Calm -- 26.54 in898.7 mb - 0.00 in0.0 mm 0.00 in0.0 mm
10:35 PM 43.0°F6.1°C 34.9°F1.6°C 73% Calm Calm -- 26.54 in898.7 mb - 0.00 in0.0 mm 0.00 in0.0 mm
10:40 PM 43.0°F6.1°C 34.6°F1.4°C 72% Calm Calm -- 26.53 in898.4 mb - 0.00 in0.0 mm 0.00 in0.0 mm
10:45 PM 42.0°F5.6°C 34.6°F1.4°C 75% Calm Calm -- 26.54 in898.7 mb - 0.00 in0.0 mm 0.00 in0.0 mm
10:50 PM 42.0°F5.6°C 35.0°F1.7°C 76% Calm Calm 1.2 mph1.9 kmh 26.53 in898.4 mb - 0.00 in0.0 mm 0.00 in0.0 mm
10:55 PM 42.0°F5.6°C 34.3°F1.3°C 74% Calm Calm -- 26.54 in898.7 mb - 0.00 in0.0 mm 0.00 in0.0 mm
11:00 PM 42.0°F5.6°C 35.0°F1.7°C 76% Calm Calm -- 26.54 in898.7 mb - 0.00 in0.0 mm 0.00 in0.0 mm
11:10 PM 41.0°F5.0°C 34.0°F1.1°C 76% 1.2 mph E1.9 kmh E 1.2 mph1.9 kmh 26.54 in898.7 mb - 0.00 in0.0 mm 0.00 in0.0 mm
11:15 PM 43.0°F6.1°C 34.6°F1.4°C 72% Calm Calm -- 26.53 in898.4 mb - 0.00 in0.0 mm 0.00 in0.0 mm
11:20 PM 41.0°F5.0°C 33.7°F0.9°C 75% Calm Calm -- 26.54 in898.7 mb - 0.00 in0.0 mm 0.00 in0.0 mm
11:25 PM 40.0°F4.4°C 33.7°F0.9°C 78% Calm Calm -- 26.54 in898.7 mb - 0.00 in0.0 mm 0.00 in0.0 mm
11:30 PM 41.0°F5.0°C 34.3°F1.3°C 77% Calm Calm -- 26.54 in898.7 mb - 0.00 in0.0 mm 0.00 in0.0 mm
11:35 PM 40.6°F4.8°C 34.3°F1.3°C 78% Calm Calm -- 26.54 in898.7 mb - 0.00 in0.0 mm 0.00 in0.0 mm
11:40 PM 40.0°F4.4°C 34.0°F1.1°C 79% Calm Calm -- 26.54 in898.7 mb - 0.00 in0.0 mm 0.00 in0.0 mm
11:45 PM 40.0°F4.4°C 33.7°F0.9°C 78% Calm Calm -- 26.53 in898.4 mb - 0.00 in0.0 mm 0.00 in0.0 mm
11:50 PM 40.0°F4.4°C 33.7°F0.9°C 78% Calm Calm -- 26.53 in898.4 mb - 0.00 in0.0 mm 0.00 in0.0 mm
11:55 PM 40.0°F4.4°C 34.0°F1.1°C 79% Calm Calm -- 26.54 in898.7 mb - 0.00 in0.0 mm 0.00 in0.0 mm